sensor_id;sensor_type;location;lat;lon;timestamp;pressure;altitude;pressure_sealevel;temperature
66604;BMP280;53460;39.612;8.822;2024-01-30T00:01:55;101475.66;;;10.20
66604;BMP280;53460;39.612;8.822;2024-01-30T00:04:21;101468.03;;;10.17
66604;BMP280;53460;39.612;8.822;2024-01-30T00:06:47;101463.41;;;10.17
66604;BMP280;53460;39.612;8.822;2024-01-30T00:09:13;101465.00;;;10.20
66604;BMP280;53460;39.612;8.822;2024-01-30T00:11:39;101474.63;;;10.16
66604;BMP280;53460;39.612;8.822;2024-01-30T00:14:05;101481.69;;;10.21
66604;BMP280;53460;39.612;8.822;2024-01-30T00:16:31;101476.91;;;10.19
66604;BMP280;53460;39.612;8.822;2024-01-30T00:18:57;101479.78;;;10.14
66604;BMP280;53460;39.612;8.822;2024-01-30T00:21:23;101474.25;;;10.19
66604;BMP280;53460;39.612;8.822;2024-01-30T00:23:49;101488.56;;;10.06
66604;BMP280;53460;39.612;8.822;2024-01-30T00:26:15;101480.97;;;10.03
66604;BMP280;53460;39.612;8.822;2024-01-30T00:28:41;101472.19;;;10.10
66604;BMP280;53460;39.612;8.822;2024-01-30T00:31:07;101468.03;;;10.17
66604;BMP280;53460;39.612;8.822;2024-01-30T00:33:34;101468.91;;;10.19
66604;BMP280;53460;39.612;8.822;2024-01-30T00:36:00;101479.41;;;10.17
66604;BMP280;53460;39.612;8.822;2024-01-30T00:38:25;101487.31;;;10.07
66604;BMP280;53460;39.612;8.822;2024-01-30T00:40:51;101477.91;;;10.06
66604;BMP280;53460;39.612;8.822;2024-01-30T00:43:17;101477.72;;;10.04
66604;BMP280;53460;39.612;8.822;2024-01-30T00:45:46;101472.81;;;10.01
66604;BMP280;53460;39.612;8.822;2024-01-30T00:48:11;101468.91;;;10.02
66604;BMP280;53460;39.612;8.822;2024-01-30T00:50:37;101472.34;;;9.95
66604;BMP280;53460;39.612;8.822;2024-01-30T00:53:03;101464.28;;;10.02
66604;BMP280;53460;39.612;8.822;2024-01-30T00:55:29;101468.47;;;9.88
66604;BMP280;53460;39.612;8.822;2024-01-30T00:57:54;101463.31;;;9.90
66604;BMP280;53460;39.612;8.822;2024-01-30T01:00:20;101461.56;;;9.85
66604;BMP280;53460;39.612;8.822;2024-01-30T01:02:47;101456.19;;;9.93
66604;BMP280;53460;39.612;8.822;2024-01-30T01:05:12;101469.88;;;9.89
66604;BMP280;53460;39.612;8.822;2024-01-30T01:07:38;101456.16;;;9.75
66604;BMP280;53460;39.612;8.822;2024-01-30T01:10:06;101449.66;;;9.86
66604;BMP280;53460;39.612;8.822;2024-01-30T01:12:32;101453.28;;;9.81
66604;BMP280;53460;39.612;8.822;2024-01-30T01:14:57;101449.13;;;9.88
66604;BMP280;53460;39.612;8.822;2024-01-30T01:17:23;101459.63;;;9.86
66604;BMP280;53460;39.612;8.822;2024-01-30T01:19:49;101468.00;;;9.82
66604;BMP280;53460;39.612;8.822;2024-01-30T01:22:15;101470.56;;;9.72
66604;BMP280;53460;39.612;8.822;2024-01-30T01:24:42;101462.91;;;9.76
66604;BMP280;53460;39.612;8.822;2024-01-30T01:27:08;101457.47;;;9.67
66604;BMP280;53460;39.612;8.822;2024-01-30T01:29:34;101448.25;;;9.68
66604;BMP280;53460;39.612;8.822;2024-01-30T01:31:59;101440.97;;;9.61
66604;BMP280;53460;39.612;8.822;2024-01-30T01:34:25;101433.94;;;9.56
66604;BMP280;53460;39.612;8.822;2024-01-30T01:36:51;101434.94;;;9.60
66604;BMP280;53460;39.612;8.822;2024-01-30T01:39:22;101431.91;;;9.64
66604;BMP280;53460;39.612;8.822;2024-01-30T01:41:49;101429.97;;;9.64
66604;BMP280;53460;39.612;8.822;2024-01-30T01:44:15;101428.69;;;9.65
66604;BMP280;53460;39.612;8.822;2024-01-30T01:46:40;101430.19;;;9.59
66604;BMP280;53460;39.612;8.822;2024-01-30T01:49:06;101429.31;;;9.56
66604;BMP280;53460;39.612;8.822;2024-01-30T01:51:35;101428.22;;;9.59
66604;BMP280;53460;39.612;8.822;2024-01-30T01:54:03;101419.66;;;9.61
66604;BMP280;53460;39.612;8.822;2024-01-30T01:56:30;101421.97;;;9.64
66604;BMP280;53460;39.612;8.822;2024-01-30T01:59:00;101423.28;;;9.56
66604;BMP280;53460;39.612;8.822;2024-01-30T02:01:27;101415.28;;;9.56
66604;BMP280;53460;39.612;8.822;2024-01-30T02:03:55;101411.19;;;9.55
66604;BMP280;53460;39.612;8.822;2024-01-30T02:06:21;101407.31;;;9.56
66604;BMP280;53460;39.612;8.822;2024-01-30T02:08:47;101403.19;;;9.55
66604;BMP280;53460;39.612;8.822;2024-01-30T02:11:13;101401.59;;;9.59
66604;BMP280;53460;39.612;8.822;2024-01-30T02:13:40;101408.09;;;9.66
66604;BMP280;53460;39.612;8.822;2024-01-30T02:16:06;101405.81;;;9.62
66604;BMP280;53460;39.612;8.822;2024-01-30T02:18:32;101407.63;;;9.60
66604;BMP280;53460;39.612;8.822;2024-01-30T02:20:58;101405.13;;;9.62
66604;BMP280;53460;39.612;8.822;2024-01-30T02:23:27;101403.16;;;9.62
66604;BMP280;53460;39.612;8.822;2024-01-30T02:25:53;101406.13;;;9.66
66604;BMP280;53460;39.612;8.822;2024-01-30T02:28:19;101413.75;;;9.70
66604;BMP280;53460;39.612;8.822;2024-01-30T02:30:46;101414.75;;;9.57
66604;BMP280;53460;39.612;8.822;2024-01-30T02:33:12;101400.03;;;9.56
66604;BMP280;53460;39.612;8.822;2024-01-30T02:35:38;101396.97;;;9.60
66604;BMP280;53460;39.612;8.822;2024-01-30T02:38:04;101393.22;;;9.63
66604;BMP280;53460;39.612;8.822;2024-01-30T02:40:31;101385.59;;;9.59
66604;BMP280;53460;39.612;8.822;2024-01-30T02:42:58;101391.91;;;9.46
66604;BMP280;53460;39.612;8.822;2024-01-30T02:45:24;101386.75;;;9.49
66604;BMP280;53460;39.612;8.822;2024-01-30T02:47:50;101391.91;;;9.46
66604;BMP280;53460;39.612;8.822;2024-01-30T02:50:16;101384.56;;;9.55
66604;BMP280;53460;39.612;8.822;2024-01-30T02:52:42;101386.22;;;9.50
66604;BMP280;53460;39.612;8.822;2024-01-30T02:55:09;101392.78;;;9.49
66604;BMP280;53460;39.612;8.822;2024-01-30T02:57:35;101386.75;;;9.49
66604;BMP280;53460;39.612;8.822;2024-01-30T03:00:02;101390.59;;;9.55
66604;BMP280;53460;39.612;8.822;2024-01-30T03:02:29;101413.69;;;9.53
66604;BMP280;53460;39.612;8.822;2024-01-30T03:04:55;101413.38;;;9.49
66604;BMP280;53460;39.612;8.822;2024-01-30T03:07:20;101413.38;;;9.49
66604;BMP280;53460;39.612;8.822;2024-01-30T03:09:46;101417.50;;;9.42
66604;BMP280;53460;39.612;8.822;2024-01-30T03:12:12;101411.88;;;9.38
66604;BMP280;53460;39.612;8.822;2024-01-30T03:14:38;101419.31;;;9.39
66604;BMP280;53460;39.612;8.822;2024-01-30T03:17:03;101414.34;;;9.36
66604;BMP280;53460;39.612;8.822;2024-01-30T03:19:29;101414.91;;;9.34
66604;BMP280;53460;39.612;8.822;2024-01-30T03:21:55;101414.91;;;9.34
66604;BMP280;53460;39.612;8.822;2024-01-30T03:24:21;101421.00;;;9.27
66604;BMP280;53460;39.612;8.822;2024-01-30T03:26:46;101415.91;;;9.22
66604;BMP280;53460;39.612;8.822;2024-01-30T03:29:12;101397.03;;;9.27
66604;BMP280;53460;39.612;8.822;2024-01-30T03:31:39;101392.69;;;9.14
66604;BMP280;53460;39.612;8.822;2024-01-30T03:34:05;101374.56;;;9.21
66604;BMP280;53460;39.612;8.822;2024-01-30T03:36:30;101373.78;;;9.28
66604;BMP280;53460;39.612;8.822;2024-01-30T03:38:58;101376.59;;;9.30
66604;BMP280;53460;39.612;8.822;2024-01-30T03:41:24;101379.47;;;9.24
66604;BMP280;53460;39.612;8.822;2024-01-30T03:43:50;101374.31;;;9.26
66604;BMP280;53460;39.612;8.822;2024-01-30T03:46:16;101367.41;;;9.23
66604;BMP280;53460;39.612;8.822;2024-01-30T03:48:42;101371.34;;;9.22
66604;BMP280;53460;39.612;8.822;2024-01-30T03:51:09;101369.78;;;9.19
66604;BMP280;53460;39.612;8.822;2024-01-30T03:53:40;101363.25;;;9.12
66604;BMP280;53460;39.612;8.822;2024-01-30T03:56:07;101360.69;;;9.22
66604;BMP280;53460;39.612;8.822;2024-01-30T03:58:33;101376.09;;;9.31
66604;BMP280;53460;39.612;8.822;2024-01-30T04:00:59;101382.13;;;9.24
66604;BMP280;53460;39.612;8.822;2024-01-30T04:03:25;101397.25;;;9.22
66604;BMP280;53460;39.612;8.822;2024-01-30T04:05:54;101394.25;;;9.18
66604;BMP280;53460;39.612;8.822;2024-01-30T04:08:20;101393.72;;;9.19
66604;BMP280;53460;39.612;8.822;2024-01-30T04:10:46;101412.06;;;9.07
66604;BMP280;53460;39.612;8.822;2024-01-30T04:13:13;101406.22;;;9.09
66604;BMP280;53460;39.612;8.822;2024-01-30T04:15:39;101412.59;;;9.13
66604;BMP280;53460;39.612;8.822;2024-01-30T04:18:05;101410.06;;;9.15
66604;BMP280;53460;39.612;8.822;2024-01-30T04:20:31;101431.88;;;9.22
66604;BMP280;53460;39.612;8.822;2024-01-30T04:22:57;101432.34;;;9.28
66604;BMP280;53460;39.612;8.822;2024-01-30T04:25:22;101448.56;;;9.22
66604;BMP280;53460;39.612;8.822;2024-01-30T04:27:48;101464.47;;;9.30
66604;BMP280;53460;39.612;8.822;2024-01-30T04:30:14;101465.91;;;9.23
66604;BMP280;53460;39.612;8.822;2024-01-30T04:32:40;101479.94;;;9.31
66604;BMP280;53460;39.612;8.822;2024-01-30T04:35:06;101476.03;;;9.25
66604;BMP280;53460;39.612;8.822;2024-01-30T04:37:32;101479.56;;;9.27
66604;BMP280;53460;39.612;8.822;2024-01-30T04:39:58;101479.63;;;9.20
66604;BMP280;53460;39.612;8.822;2024-01-30T04:42:24;101495.38;;;9.25
66604;BMP280;53460;39.612;8.822;2024-01-30T04:44:50;101495.38;;;9.25
66604;BMP280;53460;39.612;8.822;2024-01-30T04:47:16;101500.16;;;9.27
66604;BMP280;53460;39.612;8.822;2024-01-30T04:49:42;101509.41;;;9.26
66604;BMP280;53460;39.612;8.822;2024-01-30T04:52:08;101511.34;;;9.25
66604;BMP280;53460;39.612;8.822;2024-01-30T04:54:35;101519.72;;;9.22
66604;BMP280;53460;39.612;8.822;2024-01-30T04:57:01;101522.94;;;9.20
66604;BMP280;53460;39.612;8.822;2024-01-30T04:59:27;101527.16;;;9.31
66604;BMP280;53460;39.612;8.822;2024-01-30T05:01:53;101543.25;;;9.33
66604;BMP280;53460;39.612;8.822;2024-01-30T05:04:19;101551.97;;;9.33
66604;BMP280;53460;39.612;8.822;2024-01-30T05:06:46;101557.28;;;9.33
66604;BMP280;53460;39.612;8.822;2024-01-30T05:09:12;101560.38;;;9.22
66604;BMP280;53460;39.612;8.822;2024-01-30T05:11:38;101568.19;;;9.20
66604;BMP280;53460;39.612;8.822;2024-01-30T05:14:05;101562.34;;;9.14
66604;BMP280;53460;39.612;8.822;2024-01-30T05:16:31;101559.84;;;9.16
66604;BMP280;53460;39.612;8.822;2024-01-30T05:18:57;101555.44;;;9.11
66604;BMP280;53460;39.612;8.822;2024-01-30T05:21:24;101556.88;;;9.04
66604;BMP280;53460;39.612;8.822;2024-01-30T05:23:49;101553.53;;;9.04
66604;BMP280;53460;39.612;8.822;2024-01-30T05:26:15;101553.69;;;8.98
66604;BMP280;53460;39.612;8.822;2024-01-30T05:28:41;101545.69;;;9.13
66604;BMP280;53460;39.612;8.822;2024-01-30T05:31:07;101547.25;;;9.16
66604;BMP280;53460;39.612;8.822;2024-01-30T05:33:33;101554.06;;;9.02
66604;BMP280;53460;39.612;8.822;2024-01-30T05:35:59;101551.00;;;9.13
66604;BMP280;53460;39.612;8.822;2024-01-30T05:38:25;101551.00;;;9.13
66604;BMP280;53460;39.612;8.822;2024-01-30T05:40:50;101550.47;;;9.07
66604;BMP280;53460;39.612;8.822;2024-01-30T05:43:16;101545.63;;;9.21
66604;BMP280;53460;39.612;8.822;2024-01-30T05:45:42;101546.00;;;9.18
66604;BMP280;53460;39.612;8.822;2024-01-30T05:48:08;101553.66;;;9.13
66604;BMP280;53460;39.612;8.822;2024-01-30T05:50:34;101551.66;;;9.22
66604;BMP280;53460;39.612;8.822;2024-01-30T05:52:59;101556.34;;;9.13
66604;BMP280;53460;39.612;8.822;2024-01-30T05:55:25;101553.84;;;9.08
66604;BMP280;53460;39.612;8.822;2024-01-30T05:57:51;101546.75;;;9.10
66604;BMP280;53460;39.612;8.822;2024-01-30T06:00:18;101548.69;;;9.10
66604;BMP280;53460;39.612;8.822;2024-01-30T06:02:44;101553.16;;;9.07
66604;BMP280;53460;39.612;8.822;2024-01-30T06:05:10;101552.25;;;9.05
66604;BMP280;53460;39.612;8.822;2024-01-30T06:07:35;101553.88;;;9.00
66604;BMP280;53460;39.612;8.822;2024-01-30T06:10:01;101549.44;;;9.03
66604;BMP280;53460;39.612;8.822;2024-01-30T06:12:28;101544.16;;;8.88
66604;BMP280;53460;39.612;8.822;2024-01-30T06:14:54;101533.13;;;8.99
66604;BMP280;53460;39.612;8.822;2024-01-30T06:17:23;101529.75;;;8.98
66604;BMP280;53460;39.612;8.822;2024-01-30T06:19:49;101525.94;;;9.16
66604;BMP280;53460;39.612;8.822;2024-01-30T06:22:16;101532.72;;;9.10
66604;BMP280;53460;39.612;8.822;2024-01-30T06:24:41;101531.41;;;9.26
66604;BMP280;53460;39.612;8.822;2024-01-30T06:27:07;101540.72;;;9.10
66604;BMP280;53460;39.612;8.822;2024-01-30T06:29:33;101540.50;;;9.15
66604;BMP280;53460;39.612;8.822;2024-01-30T06:31:59;101551.31;;;9.18
66604;BMP280;53460;39.612;8.822;2024-01-30T06:34:25;101541.16;;;9.24
66604;BMP280;53460;39.612;8.822;2024-01-30T06:36:52;101540.44;;;9.23
66604;BMP280;53460;39.612;8.822;2024-01-30T06:39:17;101547.56;;;9.28
66604;BMP280;53460;39.612;8.822;2024-01-30T06:41:43;101564.03;;;9.34
66604;BMP280;53460;39.612;8.822;2024-01-30T06:44:12;101565.44;;;9.35
66604;BMP280;53460;39.612;8.822;2024-01-30T06:46:38;101577.34;;;9.34
66604;BMP280;53460;39.612;8.822;2024-01-30T06:49:04;101579.44;;;9.43
66604;BMP280;53460;39.612;8.822;2024-01-30T06:51:30;101588.09;;;9.52
66604;BMP280;53460;39.612;8.822;2024-01-30T06:53:55;101600.88;;;9.53
66604;BMP280;53460;39.612;8.822;2024-01-30T06:56:21;101603.47;;;9.61
66604;BMP280;53460;39.612;8.822;2024-01-30T06:58:49;101608.84;;;9.53
66604;BMP280;53460;39.612;8.822;2024-01-30T07:01:15;101609.72;;;9.63
66604;BMP280;53460;39.612;8.822;2024-01-30T07:03:41;101622.63;;;9.74
66604;BMP280;53460;39.612;8.822;2024-01-30T07:06:07;101627.53;;;9.86
66604;BMP280;53460;39.612;8.822;2024-01-30T07:08:33;101634.53;;;9.98
66604;BMP280;53460;39.612;8.822;2024-01-30T07:10:59;101648.34;;;10.04
66604;BMP280;53460;39.612;8.822;2024-01-30T07:13:25;101662.03;;;10.08
66604;BMP280;53460;39.612;8.822;2024-01-30T07:15:51;101664.28;;;10.20
66604;BMP280;53460;39.612;8.822;2024-01-30T07:18:17;101667.75;;;10.30
66604;BMP280;53460;39.612;8.822;2024-01-30T07:20:42;101683.28;;;10.49
66604;BMP280;53460;39.612;8.822;2024-01-30T07:23:12;101689.25;;;10.57
66604;BMP280;53460;39.612;8.822;2024-01-30T07:25:42;101702.78;;;10.76
66604;BMP280;53460;39.612;8.822;2024-01-30T07:28:08;101706.09;;;10.67
66604;BMP280;53460;39.612;8.822;2024-01-30T07:30:35;101711.19;;;10.90
66604;BMP280;53460;39.612;8.822;2024-01-30T07:33:01;101720.97;;;11.12
66604;BMP280;53460;39.612;8.822;2024-01-30T07:35:27;101730.22;;;11.28
66604;BMP280;53460;39.612;8.822;2024-01-30T07:37:52;101732.56;;;12.49
66604;BMP280;53460;39.612;8.822;2024-01-30T07:40:18;101721.56;;;16.62
66604;BMP280;53460;39.612;8.822;2024-01-30T07:42:44;101684.72;;;18.02
66604;BMP280;53460;39.612;8.822;2024-01-30T07:45:10;101835.03;;;19.89
66604;BMP280;53460;39.612;8.822;2024-01-30T07:47:35;101923.22;;;20.08
66604;BMP280;53460;39.612;8.822;2024-01-30T07:50:02;101903.41;;;20.55
66604;BMP280;53460;39.612;8.822;2024-01-30T07:52:28;101900.88;;;20.77
66604;BMP280;53460;39.612;8.822;2024-01-30T07:54:54;101889.25;;;20.23
66604;BMP280;53460;39.612;8.822;2024-01-30T07:57:20;101893.28;;;20.06
66604;BMP280;53460;39.612;8.822;2024-01-30T07:59:47;101902.09;;;21.86
66604;BMP280;53460;39.612;8.822;2024-01-30T08:02:13;101906.81;;;23.18
66604;BMP280;53460;39.612;8.822;2024-01-30T08:04:39;101911.53;;;22.25
66604;BMP280;53460;39.612;8.822;2024-01-30T08:07:05;101914.47;;;24.04
66604;BMP280;53460;39.612;8.822;2024-01-30T08:09:31;101918.41;;;21.66
66604;BMP280;53460;39.612;8.822;2024-01-30T08:11:57;101915.44;;;22.63
66604;BMP280;53460;39.612;8.822;2024-01-30T08:14:22;101922.81;;;23.30
66604;BMP280;53460;39.612;8.822;2024-01-30T08:16:48;101923.59;;;23.86
66604;BMP280;53460;39.612;8.822;2024-01-30T08:19:15;101919.16;;;24.93
66604;BMP280;53460;39.612;8.822;2024-01-30T08:21:41;101933.03;;;25.79
66604;BMP280;53460;39.612;8.822;2024-01-30T08:24:07;101923.69;;;24.80
66604;BMP280;53460;39.612;8.822;2024-01-30T08:26:33;101933.31;;;25.95
66604;BMP280;53460;39.612;8.822;2024-01-30T08:28:59;101927.59;;;25.81
66604;BMP280;53460;39.612;8.822;2024-01-30T08:31:25;101930.41;;;26.31
66604;BMP280;53460;39.612;8.822;2024-01-30T08:33:51;101930.28;;;25.77
66604;BMP280;53460;39.612;8.822;2024-01-30T08:36:17;101941.88;;;26.69
66604;BMP280;53460;39.612;8.822;2024-01-30T08:38:43;101933.53;;;26.11
66604;BMP280;53460;39.612;8.822;2024-01-30T08:41:09;101929.47;;;26.64
66604;BMP280;53460;39.612;8.822;2024-01-30T08:43:35;101940.81;;;27.69
66604;BMP280;53460;39.612;8.822;2024-01-30T08:46:02;101909.13;;;21.16
66604;BMP280;53460;39.612;8.822;2024-01-30T08:48:28;101920.91;;;25.48
66604;BMP280;53460;39.612;8.822;2024-01-30T08:50:53;101927.84;;;25.55
66604;BMP280;53460;39.612;8.822;2024-01-30T08:53:19;101929.59;;;27.37
66604;BMP280;53460;39.612;8.822;2024-01-30T08:55:45;101927.06;;;24.17
66604;BMP280;53460;39.612;8.822;2024-01-30T08:58:11;101929.41;;;26.08
66604;BMP280;53460;39.612;8.822;2024-01-30T09:00:37;101937.59;;;25.28
66604;BMP280;53460;39.612;8.822;2024-01-30T09:03:03;101934.94;;;25.70
66604;BMP280;53460;39.612;8.822;2024-01-30T09:05:29;101934.28;;;26.16
66604;BMP280;53460;39.612;8.822;2024-01-30T09:07:55;101916.53;;;21.91
66604;BMP280;53460;39.612;8.822;2024-01-30T09:10:21;101923.56;;;24.42
66604;BMP280;53460;39.612;8.822;2024-01-30T09:12:47;101926.25;;;25.06
66604;BMP280;53460;39.612;8.822;2024-01-30T09:15:13;101919.31;;;24.67
66604;BMP280;53460;39.612;8.822;2024-01-30T09:17:39;101909.22;;;24.12
66604;BMP280;53460;39.612;8.822;2024-01-30T09:20:06;101919.78;;;25.25
66604;BMP280;53460;39.612;8.822;2024-01-30T09:22:31;101918.88;;;22.87
66604;BMP280;53460;39.612;8.822;2024-01-30T09:24:58;101917.28;;;23.28
66604;BMP280;53460;39.612;8.822;2024-01-30T09:27:24;101912.84;;;24.84
66604;BMP280;53460;39.612;8.822;2024-01-30T09:29:49;101922.78;;;25.39
66604;BMP280;53460;39.612;8.822;2024-01-30T09:32:16;101901.06;;;24.14
66604;BMP280;53460;39.612;8.822;2024-01-30T09:34:43;101907.75;;;22.58
66604;BMP280;53460;39.612;8.822;2024-01-30T09:37:09;101910.41;;;24.05
66604;BMP280;53460;39.612;8.822;2024-01-30T09:39:34;101912.28;;;23.44
66604;BMP280;53460;39.612;8.822;2024-01-30T09:42:31;101922.88;;;23.08
66604;BMP280;53460;39.612;8.822;2024-01-30T09:44:59;101923.00;;;24.20
66604;BMP280;53460;39.612;8.822;2024-01-30T09:47:26;101927.59;;;25.41
66604;BMP280;53460;39.612;8.822;2024-01-30T09:49:52;101914.88;;;24.52
66604;BMP280;53460;39.612;8.822;2024-01-30T09:52:18;101938.28;;;27.17
66604;BMP280;53460;39.612;8.822;2024-01-30T09:54:45;101937.44;;;27.79
66604;BMP280;53460;39.612;8.822;2024-01-30T09:57:11;101948.25;;;27.57
66604;BMP280;53460;39.612;8.822;2024-01-30T09:59:37;101939.03;;;25.31
66604;BMP280;53460;39.612;8.822;2024-01-30T10:02:03;101927.59;;;25.81
66604;BMP280;53460;39.612;8.822;2024-01-30T10:04:30;101924.84;;;25.81
66604;BMP280;53460;39.612;8.822;2024-01-30T10:06:56;101913.09;;;23.49
66604;BMP280;53460;39.612;8.822;2024-01-30T10:09:24;101915.19;;;24.06
66604;BMP280;53460;39.612;8.822;2024-01-30T10:11:51;101919.09;;;28.04
66604;BMP280;53460;39.612;8.822;2024-01-30T10:14:16;101907.19;;;24.12
66604;BMP280;53460;39.612;8.822;2024-01-30T10:16:42;101900.25;;;23.79
66604;BMP280;53460;39.612;8.822;2024-01-30T10:19:10;101895.31;;;28.51
66604;BMP280;53460;39.612;8.822;2024-01-30T10:21:36;101884.97;;;27.30
66604;BMP280;53460;39.612;8.822;2024-01-30T10:24:02;101850.34;;;24.02
66604;BMP280;53460;39.612;8.822;2024-01-30T10:26:28;101835.25;;;23.16
66604;BMP280;53460;39.612;8.822;2024-01-30T10:28:55;101846.66;;;25.66
66604;BMP280;53460;39.612;8.822;2024-01-30T10:31:20;101842.91;;;23.77
66604;BMP280;53460;39.612;8.822;2024-01-30T10:33:46;101848.63;;;25.19
66604;BMP280;53460;39.612;8.822;2024-01-30T10:36:13;101860.34;;;23.38
66604;BMP280;53460;39.612;8.822;2024-01-30T10:38:42;101862.56;;;20.51
66604;BMP280;53460;39.612;8.822;2024-01-30T10:41:11;101847.75;;;19.53
66604;BMP280;53460;39.612;8.822;2024-01-30T10:43:49;101845.63;;;19.20
66604;BMP280;53460;39.612;8.822;2024-01-30T10:46:20;101839.00;;;18.35
66604;BMP280;53460;39.612;8.822;2024-01-30T10:48:56;101841.09;;;17.96
66604;BMP280;53460;39.612;8.822;2024-01-30T10:51:26;101843.91;;;18.11
66604;BMP280;53460;39.612;8.822;2024-01-30T10:53:52;101828.91;;;17.95
66604;BMP280;53460;39.612;8.822;2024-01-30T10:56:20;101836.09;;;17.90
66604;BMP280;53460;39.612;8.822;2024-01-30T10:58:50;101817.16;;;17.24
66604;BMP280;53460;39.612;8.822;2024-01-30T11:01:19;101811.41;;;18.52
66604;BMP280;53460;39.612;8.822;2024-01-30T11:03:45;101821.31;;;18.05
66604;BMP280;53460;39.612;8.822;2024-01-30T11:06:11;101807.56;;;18.42
66604;BMP280;53460;39.612;8.822;2024-01-30T11:08:39;101823.09;;;18.14
66604;BMP280;53460;39.612;8.822;2024-01-30T11:11:09;101821.97;;;17.78
66604;BMP280;53460;39.612;8.822;2024-01-30T11:13:35;101809.94;;;18.49
66604;BMP280;53460;39.612;8.822;2024-01-30T11:16:02;101808.84;;;18.84
66604;BMP280;53460;39.612;8.822;2024-01-30T11:18:32;101801.81;;;18.49
66604;BMP280;53460;39.612;8.822;2024-01-30T11:20:59;101798.34;;;18.33
66604;BMP280;53460;39.612;8.822;2024-01-30T11:23:28;101794.28;;;18.62
66604;BMP280;53460;39.612;8.822;2024-01-30T11:25:54;101798.06;;;19.15
66604;BMP280;53460;39.612;8.822;2024-01-30T11:28:23;101801.78;;;17.79
66604;BMP280;53460;39.612;8.822;2024-01-30T11:30:49;101792.38;;;17.94
66604;BMP280;53460;39.612;8.822;2024-01-30T11:33:30;101791.34;;;17.60
66604;BMP280;53460;39.612;8.822;2024-01-30T11:35:58;101776.69;;;18.04
66604;BMP280;53460;39.612;8.822;2024-01-30T11:38:28;101788.00;;;17.86
66604;BMP280;53460;39.612;8.822;2024-01-30T11:40:55;101777.22;;;17.47
66604;BMP280;53460;39.612;8.822;2024-01-30T11:43:24;101782.28;;;17.94
66604;BMP280;53460;39.612;8.822;2024-01-30T11:45:50;101774.50;;;17.20
66604;BMP280;53460;39.612;8.822;2024-01-30T11:48:17;101770.38;;;18.56
66604;BMP280;53460;39.612;8.822;2024-01-30T11:50:43;101781.06;;;17.83
66604;BMP280;53460;39.612;8.822;2024-01-30T11:53:12;101767.22;;;18.32
66604;BMP280;53460;39.612;8.822;2024-01-30T11:55:38;101770.47;;;18.01
66604;BMP280;53460;39.612;8.822;2024-01-30T11:58:03;101773.25;;;18.17
66604;BMP280;53460;39.612;8.822;2024-01-30T12:00:30;101768.97;;;18.55
66604;BMP280;53460;39.612;8.822;2024-01-30T12:02:59;101766.16;;;18.24
66604;BMP280;53460;39.612;8.822;2024-01-30T12:05:26;101763.28;;;18.06
66604;BMP280;53460;39.612;8.822;2024-01-30T12:07:53;101770.88;;;17.55
66604;BMP280;53460;39.612;8.822;2024-01-30T12:10:19;101770.75;;;17.52
66604;BMP280;53460;39.612;8.822;2024-01-30T12:12:47;101769.25;;;17.36
66604;BMP280;53460;39.612;8.822;2024-01-30T12:15:13;101767.44;;;18.66
66604;BMP280;53460;39.612;8.822;2024-01-30T12:17:40;101773.25;;;19.05
66604;BMP280;53460;39.612;8.822;2024-01-30T12:20:18;101761.66;;;18.58
66604;BMP280;53460;39.612;8.822;2024-01-30T12:22:46;101764.47;;;18.46
66604;BMP280;53460;39.612;8.822;2024-01-30T12:25:14;101754.09;;;18.70
66604;BMP280;53460;39.612;8.822;2024-01-30T12:27:45;101759.97;;;17.66
66604;BMP280;53460;39.612;8.822;2024-01-30T12:30:14;101759.19;;;18.93
66604;BMP280;53460;39.612;8.822;2024-01-30T12:32:42;101752.09;;;18.41
66604;BMP280;53460;39.612;8.822;2024-01-30T12:35:26;101749.66;;;18.17
66604;BMP280;53460;39.612;8.822;2024-01-30T12:37:52;101750.13;;;18.28
66604;BMP280;53460;39.612;8.822;2024-01-30T12:40:18;101745.09;;;18.65
66604;BMP280;53460;39.612;8.822;2024-01-30T12:42:46;101746.50;;;18.66
66604;BMP280;53460;39.612;8.822;2024-01-30T12:45:14;101742.59;;;18.26
66604;BMP280;53460;39.612;8.822;2024-01-30T12:47:41;101737.25;;;18.12
66604;BMP280;53460;39.612;8.822;2024-01-30T12:50:07;101737.44;;;17.21
66604;BMP280;53460;39.612;8.822;2024-01-30T12:52:35;101737.38;;;18.01
66604;BMP280;53460;39.612;8.822;2024-01-30T12:55:01;101735.31;;;18.29
66604;BMP280;53460;39.612;8.822;2024-01-30T12:57:26;101723.81;;;17.85
66604;BMP280;53460;39.612;8.822;2024-01-30T12:59:52;101734.25;;;17.38
66604;BMP280;53460;39.612;8.822;2024-01-30T13:02:18;101729.00;;;17.01
66604;BMP280;53460;39.612;8.822;2024-01-30T13:04:44;101724.78;;;18.35
66604;BMP280;53460;39.612;8.822;2024-01-30T13:07:10;101722.09;;;18.35
66604;BMP280;53460;39.612;8.822;2024-01-30T13:09:36;101723.06;;;17.98
66604;BMP280;53460;39.612;8.822;2024-01-30T13:12:02;101719.75;;;18.88
66604;BMP280;53460;39.612;8.822;2024-01-30T13:14:28;101718.41;;;17.71
66604;BMP280;53460;39.612;8.822;2024-01-30T13:16:53;101718.59;;;17.48
66604;BMP280;53460;39.612;8.822;2024-01-30T13:19:19;101716.94;;;18.11
66604;BMP280;53460;39.612;8.822;2024-01-30T13:21:45;101713.69;;;17.85
66604;BMP280;53460;39.612;8.822;2024-01-30T13:24:11;101714.09;;;17.80
66604;BMP280;53460;39.612;8.822;2024-01-30T13:26:37;101722.09;;;18.35
66604;BMP280;53460;39.612;8.822;2024-01-30T13:29:03;101709.78;;;18.32
66604;BMP280;53460;39.612;8.822;2024-01-30T13:31:29;101709.53;;;18.12
66604;BMP280;53460;39.612;8.822;2024-01-30T13:33:55;101708.34;;;18.01
66604;BMP280;53460;39.612;8.822;2024-01-30T13:36:21;101715.06;;;18.00
66604;BMP280;53460;39.612;8.822;2024-01-30T13:38:47;101714.66;;;17.78
66604;BMP280;53460;39.612;8.822;2024-01-30T13:41:13;101713.13;;;18.03
66604;BMP280;53460;39.612;8.822;2024-01-30T13:43:39;101710.53;;;18.48
66604;BMP280;53460;39.612;8.822;2024-01-30T13:46:05;101712.34;;;18.14
66604;BMP280;53460;39.612;8.822;2024-01-30T13:48:31;101717.41;;;17.37
66604;BMP280;53460;39.612;8.822;2024-01-30T13:50:57;101713.16;;;17.89
66604;BMP280;53460;39.612;8.822;2024-01-30T13:53:23;101709.47;;;18.10
66604;BMP280;53460;39.612;8.822;2024-01-30T13:55:49;101707.41;;;17.67
66604;BMP280;53460;39.612;8.822;2024-01-30T13:58:14;101711.09;;;17.46